Time;durP1;ratioP1;P1;durP2;ratioP2;P2;SDS_P1;SDS_P2;PMS_P1;PMS_P2;Temp;Humidity;BMP_temperature;BMP_pressure;BME280_temperature;BME280_humidity;BME280_pressure;Samples;Min_cycle;Max_cycle;Signal;HPM_P1;HPM_P2
2021/04/28 00:01:25;;;;;;;11.80;7.60;;;12.50;41.90;;;;;;5020519;28;20221;-88
2021/04/28 00:03:51;;;;;;;10.83;7.90;;;12.40;42.60;;;;;;5021666;28;20237;-87
2021/04/28 00:06:17;;;;;;;9.70;8.70;;;12.30;42.60;;;;;;5020678;28;20586;-87
2021/04/28 00:08:43;;;;;;;9.97;8.97;;;12.30;42.80;;;;;;5031035;28;20211;-87
2021/04/28 00:11:09;;;;;;;12.57;8.53;;;12.30;42.60;;;;;;5023271;28;20187;-87
2021/04/28 00:13:34;;;;;;;9.67;8.27;;;12.30;42.30;;;;;;5022228;28;20211;-88
2021/04/28 00:16:00;;;;;;;8.97;8.07;;;12.20;42.80;;;;;;5021301;28;20220;-87
2021/04/28 00:18:26;;;;;;;9.33;8.23;;;12.10;42.60;;;;;;5020446;28;20189;-87
2021/04/28 00:20:52;;;;;;;8.43;7.63;;;12.10;42.20;;;;;;5022577;28;20177;-88
2021/04/28 00:23:18;;;;;;;11.43;8.13;;;12.00;42.60;;;;;;5021776;28;20300;-87
2021/04/28 00:25:44;;;;;;;9.43;8.23;;;11.90;42.70;;;;;;5022990;28;20552;-87
2021/04/28 00:28:11;;;;;;;9.60;8.27;;;11.90;43.00;;;;;;5021729;28;20178;-87
2021/04/28 00:30:37;;;;;;;11.30;9.00;;;11.90;43.10;;;;;;5021874;28;20183;-87
2021/04/28 00:33:03;;;;;;;8.53;7.63;;;11.90;43.30;;;;;;5035111;28;20393;-86
2021/04/28 00:35:29;;;;;;;9.90;7.93;;;11.70;43.10;;;;;;5034800;28;20221;-86
2021/04/28 00:37:55;;;;;;;9.30;7.93;;;11.80;43.70;;;;;;5036841;28;20223;-87
2021/04/28 00:40:32;;;;;;;10.00;8.20;;;11.80;44.40;;;;;;5041519;28;20276;-87
2021/04/28 00:42:59;;;;;;;8.20;7.50;;;11.90;45.90;;;;;;5044761;28;20199;-87
2021/04/28 00:45:26;;;;;;;13.27;7.53;;;11.80;46.30;;;;;;5043188;28;20183;-87
2021/04/28 00:47:57;;;;;;;8.40;7.60;;;11.90;45.40;;;;;;5022316;28;20194;-87
2021/04/28 00:50:33;;;;;;;9.00;8.20;;;12.00;45.30;;;;;;5022358;28;20285;-87
2021/04/28 00:53:00;;;;;;;9.60;7.87;;;12.20;44.70;;;;;;5022018;28;20287;-87
2021/04/28 00:55:26;;;;;;;8.47;7.50;;;12.20;44.80;;;;;;5021343;28;20207;-86
2021/04/28 00:57:52;;;;;;;8.67;7.63;;;12.30;44.30;;;;;;4987820;28;20188;-87
2021/04/28 01:00:19;;;;;;;9.53;8.50;;;12.30;43.80;;;;;;5021682;28;20189;-88
2021/04/28 01:02:45;;;;;;;9.37;8.43;;;12.30;44.40;;;;;;5021688;28;20214;-87
2021/04/28 01:05:12;;;;;;;11.47;8.27;;;12.10;44.60;;;;;;5004541;28;20185;-87
2021/04/28 01:07:41;;;;;;;8.93;8.13;;;12.20;45.20;;;;;;5027276;28;20196;-87
2021/04/28 01:10:11;;;;;;;8.43;7.53;;;12.20;45.50;;;;;;5023839;28;20187;-87
2021/04/28 01:12:38;;;;;;;8.20;7.40;;;12.20;46.60;;;;;;5024837;28;20203;-87
2021/04/28 01:15:06;;;;;;;8.47;7.57;;;12.10;46.80;;;;;;5025696;28;20214;-87
2021/04/28 01:17:33;;;;;;;7.50;6.50;;;12.20;46.30;;;;;;5024583;28;20180;-87
2021/04/28 01:19:58;;;;;;;8.23;7.43;;;12.20;45.90;;;;;;5024208;28;20192;-87
2021/04/28 01:22:24;;;;;;;8.07;7.27;;;12.10;44.80;;;;;;5038680;28;20190;-87
2021/04/28 01:24:50;;;;;;;7.83;7.07;;;12.10;44.20;;;;;;5045710;28;20202;-87
2021/04/28 01:27:22;;;;;;;9.97;7.80;;;12.10;44.20;;;;;;5044050;28;20243;-87
2021/04/28 01:29:48;;;;;;;8.60;7.50;;;12.10;43.20;;;;;;5045691;28;20171;-87
2021/04/28 01:32:18;;;;;;;9.33;8.03;;;12.00;43.00;;;;;;5044450;28;20209;-87
2021/04/28 01:34:45;;;;;;;8.40;7.40;;;11.90;44.00;;;;;;5045686;28;20284;-87
2021/04/28 01:37:12;;;;;;;8.43;7.53;;;11.80;43.60;;;;;;5043569;28;20232;-87
2021/04/28 01:39:39;;;;;;;8.57;7.77;;;11.70;43.70;;;;;;5044978;28;20462;-87
2021/04/28 01:42:05;;;;;;;9.27;8.27;;;11.70;43.80;;;;;;5044764;28;20170;-87
2021/04/28 01:44:32;;;;;;;8.70;7.70;;;11.60;44.00;;;;;;5044629;28;20542;-87
2021/04/28 01:46:58;;;;;;;8.77;7.87;;;11.50;44.20;;;;;;5043447;28;20204;-87
2021/04/28 01:49:24;;;;;;;8.43;7.53;;;11.40;44.50;;;;;;5044620;28;20211;-87
2021/04/28 01:51:53;;;;;;;8.30;7.50;;;11.30;44.70;;;;;;5044474;28;20199;-87
2021/04/28 01:54:20;;;;;;;10.67;7.97;;;11.40;45.10;;;;;;5043942;28;20364;-87
2021/04/28 01:56:48;;;;;;;8.20;7.50;;;11.40;44.70;;;;;;5043180;28;20582;-87
2021/04/28 01:59:15;;;;;;;8.70;7.33;;;11.30;45.50;;;;;;5044500;28;20204;-87
2021/04/28 02:01:47;;;;;;;8.67;7.80;;;11.30;46.20;;;;;;5043155;28;20237;-86
2021/04/28 02:04:14;;;;;;;8.00;7.20;;;11.10;47.60;;;;;;5043791;28;20205;-87
2021/04/28 02:06:40;;;;;;;8.73;7.93;;;11.20;47.30;;;;;;5038982;28;20185;-87
2021/04/28 02:09:06;;;;;;;9.53;7.13;;;11.10;46.60;;;;;;5024159;28;20190;-87
2021/04/28 02:11:32;;;;;;;8.77;7.23;;;11.20;46.30;;;;;;5024262;28;20193;-87
2021/04/28 02:13:59;;;;;;;8.70;7.80;;;11.30;47.00;;;;;;5022873;28;20281;-87
2021/04/28 02:16:31;;;;;;;8.77;7.40;;;11.20;47.00;;;;;;5023361;28;20189;-87
2021/04/28 02:18:57;;;;;;;7.77;7.00;;;11.20;47.70;;;;;;5029499;28;20174;-87
2021/04/28 02:21:23;;;;;;;8.60;7.43;;;11.20;48.10;;;;;;5044266;28;20229;-87
2021/04/28 02:23:50;;;;;;;7.93;7.23;;;11.10;48.90;;;;;;5043286;28;20216;-87
2021/04/28 02:26:16;;;;;;;8.30;7.50;;;10.90;50.00;;;;;;5043935;28;20177;-87
2021/04/28 02:28:41;;;;;;;12.17;7.60;;;10.80;50.20;;;;;;5044152;28;20266;-86
2021/04/28 02:31:08;;;;;;;7.40;6.53;;;10.90;50.10;;;;;;5043532;28;20681;-87
2021/04/28 02:33:35;;;;;;;7.43;6.73;;;10.90;50.30;;;;;;5043695;28;20271;-87
2021/04/28 02:36:02;;;;;;;6.97;6.37;;;10.90;50.80;;;;;;5032739;28;20273;-87
2021/04/28 02:38:37;;;;;;;8.20;6.57;;;10.80;51.60;;;;;;5023924;28;20180;-87
2021/04/28 02:41:04;;;;;;;7.10;6.50;;;10.80;52.60;;;;;;5023848;28;20173;-87
2021/04/28 02:43:31;;;;;;;7.67;6.67;;;10.80;52.50;;;;;;5023574;28;20205;-87
2021/04/28 02:46:01;;;;;;;7.07;6.47;;;10.80;52.40;;;;;;5023284;28;20653;-87
2021/04/28 02:48:28;;;;;;;8.37;7.20;;;10.80;51.30;;;;;;5006446;28;20245;-87
2021/04/28 02:50:55;;;;;;;8.07;6.57;;;10.80;51.40;;;;;;5022355;28;20183;-87
2021/04/28 02:53:25;;;;;;;6.87;6.27;;;10.70;51.90;;;;;;5023646;28;20325;-87
2021/04/28 02:55:57;;;;;;;7.97;7.20;;;10.70;52.40;;;;;;5022523;28;20181;-86
2021/04/28 02:58:24;;;;;;;7.23;6.60;;;10.70;52.90;;;;;;5023129;28;20181;-87
2021/04/28 03:00:52;;;;;;;9.03;7.00;;;10.60;52.80;;;;;;5023420;28;20260;-86
2021/04/28 03:03:18;;;;;;;7.97;7.27;;;10.60;52.50;;;;;;5021820;28;20292;-87
2021/04/28 03:05:47;;;;;;;7.37;6.53;;;10.60;52.70;;;;;;5026151;28;20223;-87
2021/04/28 03:08:14;;;;;;;6.70;6.07;;;10.60;52.50;;;;;;5042861;28;20169;-86
2021/04/28 03:10:40;;;;;;;7.70;6.90;;;10.70;52.40;;;;;;5042244;28;20187;-87
2021/04/28 03:13:06;;;;;;;7.67;6.97;;;10.70;51.60;;;;;;5042990;28;20204;-87
2021/04/28 03:15:32;;;;;;;7.57;6.73;;;10.60;51.30;;;;;;5025584;28;20307;-87
2021/04/28 03:17:58;;;;;;;6.90;6.30;;;10.70;51.30;;;;;;5041674;28;20189;-87
2021/04/28 03:20:26;;;;;;;8.33;6.97;;;10.70;50.90;;;;;;5041002;28;20519;-86
2021/04/28 03:22:52;;;;;;;7.73;7.03;;;10.60;50.70;;;;;;5043532;28;20263;-87
2021/04/28 03:25:17;;;;;;;7.60;6.90;;;10.70;50.40;;;;;;5045530;28;20189;-87
2021/04/28 03:27:43;;;;;;;7.97;6.73;;;10.70;50.30;;;;;;5042576;28;20573;-87
2021/04/28 03:30:09;;;;;;;8.50;7.40;;;10.60;50.50;;;;;;5044572;28;20284;-87
2021/04/28 03:32:35;;;;;;;9.13;6.57;;;10.60;51.50;;;;;;5043210;28;20239;-86
2021/04/28 03:35:01;;;;;;;7.67;6.83;;;10.40;52.90;;;;;;5042181;28;20216;-86
2021/04/28 03:37:26;;;;;;;7.47;6.77;;;10.30;53.10;;;;;;5023118;28;20185;-87
2021/04/28 03:39:52;;;;;;;7.40;6.73;;;10.10;54.50;;;;;;5022930;28;20185;-87
2021/04/28 03:42:18;;;;;;;10.90;6.90;;;10.00;53.60;;;;;;5004354;28;20185;-87
2021/04/28 03:44:44;;;;;;;7.73;7.03;;;9.80;54.80;;;;;;5022500;28;20178;-87
2021/04/28 03:47:10;;;;;;;11.27;6.83;;;9.70;55.10;;;;;;5021864;28;20189;-87
2021/04/28 03:49:36;;;;;;;9.10;6.80;;;9.80;54.30;;;;;;5022788;28;20218;-87
2021/04/28 03:52:01;;;;;;;7.07;6.40;;;10.00;53.70;;;;;;5026482;28;20193;-87
2021/04/28 03:54:27;;;;;;;8.63;6.20;;;9.80;53.70;;;;;;5042162;28;20941;-87
2021/04/28 03:56:52;;;;;;;7.13;6.53;;;9.80;53.80;;;;;;5043343;28;20188;-87
2021/04/28 03:59:18;;;;;;;7.40;6.60;;;9.80;54.30;;;;;;5041510;28;20196;-87
2021/04/28 04:01:44;;;;;;;8.33;6.47;;;9.70;54.40;;;;;;5032497;28;20182;-86
2021/04/28 04:04:10;;;;;;;8.20;6.57;;;9.60;54.60;;;;;;5019272;28;20211;-87
2021/04/28 04:06:36;;;;;;;6.00;5.37;;;9.60;54.60;;;;;;5029658;28;20821;-88
2021/04/28 04:09:02;;;;;;;6.50;5.87;;;9.60;54.70;;;;;;5039077;28;20188;-88
2021/04/28 04:11:29;;;;;;;6.90;6.20;;;9.60;55.00;;;;;;5038640;28;20201;-88
2021/04/28 04:13:55;;;;;;;6.97;6.37;;;9.50;54.90;;;;;;5038852;28;20225;-88
2021/04/28 04:16:20;;;;;;;12.53;6.70;;;9.60;54.60;;;;;;5039110;28;20180;-88
2021/04/28 04:18:46;;;;;;;7.50;6.77;;;9.60;54.30;;;;;;5039807;28;20259;-88
2021/04/28 04:21:12;;;;;;;9.97;6.77;;;9.70;54.10;;;;;;5039695;28;20185;-89
2021/04/28 04:23:37;;;;;;;11.80;6.13;;;9.60;54.30;;;;;;5040461;28;20277;-88
2021/04/28 04:26:03;;;;;;;8.10;6.40;;;9.50;54.50;;;;;;5019657;28;20178;-87
2021/04/28 04:28:29;;;;;;;9.13;7.27;;;9.60;54.10;;;;;;5019546;28;20199;-87
2021/04/28 04:30:55;;;;;;;9.10;7.73;;;9.50;55.10;;;;;;5037196;28;20239;-87
2021/04/28 04:33:20;;;;;;;14.93;6.63;;;9.30;55.80;;;;;;5028308;28;20224;-87
2021/04/28 04:35:46;;;;;;;8.03;7.23;;;9.40;55.40;;;;;;5033857;28;20882;-88
2021/04/28 04:38:13;;;;;;;6.83;6.13;;;9.40;55.20;;;;;;5027703;28;20675;-88
2021/04/28 04:40:38;;;;;;;8.70;6.83;;;9.50;55.30;;;;;;5037987;28;20177;-87
2021/04/28 04:43:04;;;;;;;7.40;6.43;;;9.50;55.40;;;;;;5020014;28;20233;-88
2021/04/28 04:45:33;;;;;;;7.13;6.13;;;9.50;55.40;;;;;;5020447;28;20177;-88
2021/04/28 04:48:04;;;;;;;9.60;6.60;;;9.50;55.20;;;;;;5023184;28;20257;-88
2021/04/28 04:50:30;;;;;;;9.23;7.10;;;9.40;55.50;;;;;;5006164;28;20212;-88
2021/04/28 04:52:56;;;;;;;10.53;6.67;;;9.50;55.70;;;;;;5030470;28;20201;-86
2021/04/28 04:55:22;;;;;;;7.63;6.47;;;9.50;55.90;;;;;;5041357;28;20303;-88
2021/04/28 04:57:51;;;;;;;10.60;6.37;;;9.50;55.70;;;;;;5041209;28;20267;-87
2021/04/28 05:00:18;;;;;;;8.50;7.30;;;9.50;55.40;;;;;;5041996;28;20189;-88
2021/04/28 05:02:44;;;;;;;7.77;7.07;;;9.40;56.00;;;;;;5025548;28;20228;-87
2021/04/28 05:05:12;;;;;;;9.37;7.00;;;9.40;56.70;;;;;;5030586;28;20207;-87
2021/04/28 05:07:38;;;;;;;8.53;6.43;;;9.40;56.20;;;;;;5031663;28;20192;-88
2021/04/28 05:10:09;;;;;;;7.40;6.10;;;9.40;56.30;;;;;;5033112;28;20275;-87
2021/04/28 05:12:35;;;;;;;9.17;6.40;;;9.40;56.10;;;;;;5023670;28;20575;-87
2021/04/28 05:15:01;;;;;;;9.87;6.80;;;9.50;55.60;;;;;;5022206;28;20252;-87
2021/04/28 05:17:26;;;;;;;12.37;7.53;;;9.60;55.90;;;;;;5036222;28;20189;-87
2021/04/28 05:19:52;;;;;;;9.97;7.00;;;9.50;56.60;;;;;;5030147;28;20209;-87
2021/04/28 05:22:26;;;;;;;7.40;6.57;;;9.50;56.10;;;;;;5037602;28;20201;-86
2021/04/28 05:24:52;;;;;;;12.67;8.80;;;9.50;56.10;;;;;;5041650;28;20219;-87
2021/04/28 05:27:18;;;;;;;11.20;7.63;;;9.60;55.60;;;;;;5040375;28;20613;-87
2021/04/28 05:29:48;;;;;;;10.23;7.33;;;9.60;56.10;;;;;;5033406;28;20192;-87
2021/04/28 05:32:13;;;;;;;8.87;7.97;;;9.50;57.60;;;;;;5029323;28;20656;-87
2021/04/28 05:34:39;;;;;;;18.53;9.40;;;9.50;57.00;;;;;;5029047;28;20217;-87
2021/04/28 05:37:05;;;;;;;13.03;9.70;;;9.70;56.30;;;;;;5027354;28;20213;-87
2021/04/28 05:39:31;;;;;;;11.27;8.03;;;9.60;56.40;;;;;;5027999;28;20185;-88
2021/04/28 05:41:57;;;;;;;8.47;7.67;;;9.70;56.20;;;;;;5022446;28;20170;-87
2021/04/28 05:44:23;;;;;;;9.53;8.53;;;9.80;55.70;;;;;;5031759;28;20224;-87
2021/04/28 05:46:48;;;;;;;13.90;8.97;;;9.80;55.70;;;;;;5035289;28;20244;-87
2021/04/28 05:49:14;;;;;;;26.40;9.83;;;9.80;56.10;;;;;;5034837;28;20279;-87
2021/04/28 05:51:43;;;;;;;13.80;9.93;;;9.80;56.40;;;;;;5039891;28;20550;-88
2021/04/28 05:54:10;;;;;;;12.00;9.27;;;9.80;56.90;;;;;;5039723;28;20216;-86
2021/04/28 05:56:39;;;;;;;11.40;8.77;;;9.80;56.90;;;;;;5032669;28;20516;-87
2021/04/28 05:59:06;;;;;;;9.77;8.37;;;9.90;56.70;;;;;;5028248;28;20194;-88
2021/04/28 06:01:31;;;;;;;10.20;8.90;;;9.90;57.10;;;;;;5041956;28;20180;-88
2021/04/28 06:03:57;;;;;;;12.27;9.03;;;10.00;56.30;;;;;;5022322;28;20267;-87
2021/04/28 06:06:24;;;;;;;10.20;8.70;;;10.00;56.70;;;;;;5025979;28;20615;-87
2021/04/28 06:08:50;;;;;;;8.60;7.60;;;10.00;55.80;;;;;;5021858;28;20277;-87
2021/04/28 06:11:16;;;;;;;8.67;7.80;;;10.00;53.80;;;;;;5033358;28;20216;-87
2021/04/28 06:13:43;;;;;;;9.83;7.27;;;10.00;53.80;;;;;;5022462;28;20217;-87
2021/04/28 06:16:09;;;;;;;8.23;7.43;;;10.10;52.90;;;;;;5022393;28;20196;-87
2021/04/28 06:18:34;;;;;;;9.87;7.50;;;10.20;52.70;;;;;;5029350;28;20188;-88
2021/04/28 06:21:00;;;;;;;7.63;7.00;;;10.30;52.20;;;;;;5025132;28;20209;-87
2021/04/28 06:23:25;;;;;;;8.37;7.57;;;10.30;51.30;;;;;;5022818;28;20704;-87
2021/04/28 06:25:51;;;;;;;14.00;12.53;;;10.30;51.50;;;;;;5037296;28;20204;-87
2021/04/28 06:28:17;;;;;;;8.67;7.77;;;10.50;51.80;;;;;;5042050;28;20200;-88
2021/04/28 06:30:43;;;;;;;8.50;7.70;;;10.40;51.70;;;;;;5041793;28;20181;-87
2021/04/28 06:33:08;;;;;;;11.13;7.93;;;10.40;51.30;;;;;;5023641;28;20209;-88
2021/04/28 06:35:34;;;;;;;8.77;7.87;;;10.50;51.40;;;;;;5020997;28;20206;-88
2021/04/28 06:38:00;;;;;;;8.33;7.53;;;10.70;51.80;;;;;;5021966;28;20197;-88
2021/04/28 06:40:26;;;;;;;8.47;7.77;;;10.80;50.80;;;;;;5022531;28;20176;-88
2021/04/28 06:42:52;;;;;;;10.77;7.80;;;10.90;50.70;;;;;;5022409;28;20623;-88
2021/04/28 06:45:17;;;;;;;11.10;8.13;;;11.00;50.40;;;;;;5008415;28;20192;-87
2021/04/28 06:47:43;;;;;;;11.23;8.20;;;11.20;49.70;;;;;;5035210;28;20177;-88
2021/04/28 06:50:10;;;;;;;10.07;7.70;;;11.10;49.50;;;;;;5030303;28;20203;-88
2021/04/28 06:52:36;;;;;;;10.57;7.97;;;11.30;49.40;;;;;;5039038;28;20208;-87
2021/04/28 06:55:03;;;;;;;10.50;9.00;;;11.40;49.20;;;;;;5023121;28;20209;-88
2021/04/28 06:57:29;;;;;;;9.23;8.33;;;11.50;49.30;;;;;;5027013;28;20200;-88
2021/04/28 06:59:55;;;;;;;13.17;8.43;;;11.40;49.30;;;;;;5016667;28;20185;-88
2021/04/28 07:02:21;;;;;;;10.63;8.37;;;11.10;50.50;;;;;;5031948;28;20181;-88
2021/04/28 07:04:47;;;;;;;12.47;8.57;;;11.00;49.60;;;;;;5035446;28;20253;-88
2021/04/28 07:07:12;;;;;;;10.10;7.90;;;11.10;50.50;;;;;;5032703;28;20245;-88
2021/04/28 07:09:38;;;;;;;9.93;8.90;;;11.20;49.50;;;;;;5033138;28;20696;-88
2021/04/28 07:12:04;;;;;;;9.53;8.67;;;11.30;50.70;;;;;;5030651;28;20197;-88
2021/04/28 07:14:30;;;;;;;10.27;8.63;;;11.20;50.80;;;;;;5031743;28;20223;-87
2021/04/28 07:16:55;;;;;;;11.63;8.60;;;11.30;50.10;;;;;;5027209;28;20281;-88
2021/04/28 07:19:21;;;;;;;9.60;7.97;;;11.30;50.00;;;;;;5026809;28;20197;-88
2021/04/28 07:21:47;;;;;;;12.73;8.83;;;11.60;49.70;;;;;;5039014;28;20269;-87
2021/04/28 07:24:12;;;;;;;9.37;8.17;;;11.70;48.80;;;;;;5037727;28;20217;-87
2021/04/28 07:26:38;;;;;;;13.67;9.90;;;11.80;48.80;;;;;;5031796;28;20272;-88
2021/04/28 07:29:04;;;;;;;9.63;8.63;;;11.80;49.10;;;;;;5023440;28;20281;-88
2021/04/28 07:31:30;;;;;;;10.43;8.40;;;11.90;48.80;;;;;;5025418;28;20183;-88
2021/04/28 07:33:57;;;;;;;9.87;8.90;;;12.00;49.30;;;;;;5034531;28;20221;-88
2021/04/28 07:36:23;;;;;;;11.30;8.70;;;12.20;48.40;;;;;;5036458;28;20188;-89
2021/04/28 07:38:49;;;;;;;13.43;9.50;;;12.20;47.80;;;;;;5037775;28;20212;-88
2021/04/28 07:41:14;;;;;;;8.80;8.00;;;12.10;48.80;;;;;;5034445;28;20755;-88
2021/04/28 07:43:40;;;;;;;10.57;9.37;;;12.30;49.10;;;;;;5031636;28;20208;-88
2021/04/28 07:46:06;;;;;;;9.70;8.80;;;12.50;48.40;;;;;;5011653;23;20246;-82
2021/04/28 07:48:32;;;;;;;13.20;9.00;;;12.50;47.80;;;;;;4963259;28;20197;-83
2021/04/28 07:51:00;;;;;;;10.00;8.97;;;12.50;47.90;;;;;;4967343;28;20558;-82
2021/04/28 07:53:26;;;;;;;10.57;9.10;;;12.60;47.20;;;;;;4977811;28;20196;-82
2021/04/28 07:55:52;;;;;;;9.47;8.67;;;12.60;47.60;;;;;;4970547;28;20214;-83
2021/04/28 07:58:18;;;;;;;9.77;8.77;;;12.60;47.60;;;;;;4964588;28;20243;-84
2021/04/28 08:00:44;;;;;;;9.90;8.90;;;12.60;49.80;;;;;;4988031;28;20281;-81
2021/04/28 08:03:10;;;;;;;11.17;9.70;;;12.80;49.00;;;;;;4997134;28;20208;-81
2021/04/28 08:05:36;;;;;;;13.07;10.13;;;13.00;47.00;;;;;;4974226;28;20225;-82
2021/04/28 08:08:02;;;;;;;11.93;9.70;;;13.10;47.40;;;;;;4973987;28;20212;-81
2021/04/28 08:10:28;;;;;;;11.17;10.07;;;13.40;46.30;;;;;;4969295;28;20806;-81
2021/04/28 08:12:54;;;;;;;11.93;10.30;;;13.60;45.20;;;;;;4966335;28;20194;-81
2021/04/28 08:15:19;;;;;;;12.40;10.53;;;13.60;44.70;;;;;;4971398;28;20233;-81
2021/04/28 08:17:45;;;;;;;14.17;9.93;;;13.70;45.00;;;;;;4974219;28;20190;-81
2021/04/28 08:20:12;;;;;;;11.77;10.57;;;13.80;45.60;;;;;;4984315;28;20720;-81
2021/04/28 08:22:38;;;;;;;11.83;10.63;;;13.90;44.50;;;;;;4974822;28;20818;-81
2021/04/28 08:25:06;;;;;;;12.70;11.43;;;14.00;44.90;;;;;;4969864;28;20225;-81
2021/04/28 08:27:32;;;;;;;11.20;9.90;;;14.00;44.50;;;;;;4977814;28;20271;-81
2021/04/28 08:29:57;;;;;;;12.50;11.30;;;14.10;44.10;;;;;;4965434;28;20283;-81
2021/04/28 08:32:24;;;;;;;12.67;10.83;;;14.50;43.90;;;;;;4971726;28;20254;-82
2021/04/28 08:34:50;;;;;;;13.13;11.07;;;14.70;44.40;;;;;;4967245;28;20219;-81
2021/04/28 08:37:25;;;;;;;12.37;11.03;;;14.90;43.40;;;;;;4985045;28;20176;-83
2021/04/28 08:39:50;;;;;;;12.87;10.67;;;15.10;42.20;;;;;;4992534;28;20183;-83
2021/04/28 08:42:17;;;;;;;11.93;10.07;;;15.20;41.70;;;;;;4973414;28;20246;-81
2021/04/28 08:44:43;;;;;;;14.20;12.10;;;15.30;42.30;;;;;;4971858;28;20191;-81
2021/04/28 08:47:09;;;;;;;12.83;11.33;;;15.40;40.70;;;;;;4993800;28;20272;-82
2021/04/28 08:49:35;;;;;;;13.10;11.83;;;15.60;40.40;;;;;;4966217;28;20646;-82
2021/04/28 08:52:02;;;;;;;11.93;10.67;;;15.70;40.50;;;;;;4964548;28;20779;-82
2021/04/28 08:54:28;;;;;;;16.87;12.23;;;15.80;41.70;;;;;;4966345;28;20211;-82
2021/04/28 08:56:55;;;;;;;11.73;10.50;;;15.90;41.70;;;;;;4994453;28;20208;-82
2021/04/28 08:59:22;;;;;;;18.10;12.87;;;16.10;40.40;;;;;;4975279;28;20177;-83
2021/04/28 09:01:48;;;;;;;19.07;12.40;;;16.20;39.40;;;;;;4979271;28;20281;-82
2021/04/28 09:04:19;;;;;;;13.07;10.67;;;16.30;39.40;;;;;;4973581;28;20235;-82
2021/04/28 09:06:46;;;;;;;16.50;11.97;;;16.30;39.40;;;;;;4963448;28;20204;-81
2021/04/28 09:09:16;;;;;;;14.47;11.37;;;16.50;39.10;;;;;;4960522;28;20200;-82
2021/04/28 09:11:54;;;;;;;13.23;11.83;;;16.70;39.10;;;;;;4965050;28;20446;-81
2021/04/28 09:14:22;;;;;;;20.63;12.23;;;16.80;38.60;;;;;;4974764;28;20195;-81
2021/04/28 09:16:54;;;;;;;15.60;13.10;;;17.10;38.90;;;;;;4963817;28;20217;-82
2021/04/28 09:19:39;;;;;;;16.00;12.87;;;17.40;37.70;;;;;;4964536;28;20665;-82
2021/04/28 09:22:08;;;;;;;15.03;13.00;;;17.60;37.20;;;;;;4970903;28;20186;-82
2021/04/28 09:24:46;;;;;;;15.83;12.87;;;17.70;37.80;;;;;;4972873;28;20199;-81
2021/04/28 09:27:34;;;;;;;15.90;12.87;;;17.80;36.10;;;;;;4967254;28;20195;-82
2021/04/28 09:30:00;;;;;;;16.63;13.17;;;17.80;36.00;;;;;;4966890;28;20189;-82
2021/04/28 09:32:34;;;;;;;14.90;12.77;;;18.20;35.70;;;;;;4971988;28;20187;-83
2021/04/28 09:35:20;;;;;;;14.67;13.33;;;18.20;35.90;;;;;;4965381;28;20216;-85
2021/04/28 09:37:56;;;;;;;14.33;12.87;;;18.50;34.80;;;;;;4963156;28;20700;-84
2021/04/28 09:40:40;;;;;;;16.10;14.40;;;18.70;34.00;;;;;;4963133;28;20535;-84
2021/04/28 09:43:05;;;;;;;16.77;12.90;;;18.80;34.20;;;;;;4967500;28;20217;-83
2021/04/28 09:45:46;;;;;;;15.00;12.98;;;18.80;33.90;;;;;;4969488;28;20226;-83
2021/04/28 09:48:16;;;;;;;14.30;12.77;;;18.90;33.60;;;;;;4967016;28;20219;-83
2021/04/28 09:50:42;;;;;;;14.23;12.90;;;19.10;32.30;;;;;;4965735;28;20203;-83
2021/04/28 09:53:08;;;;;;;13.52;12.23;;;19.30;32.70;;;;;;4965901;28;20204;-83
2021/04/28 09:55:52;;;;;;;15.70;13.45;;;19.30;32.30;;;;;;4973457;28;20232;-83
2021/04/28 09:58:18;;;;;;;16.45;13.75;;;19.50;33.20;;;;;;4970246;28;20644;-83
2021/04/28 10:00:58;;;;;;;14.60;13.15;;;19.60;32.30;;;;;;4968067;28;20311;-83
2021/04/28 10:03:46;;;;;;;22.23;15.30;;;19.80;31.70;;;;;;4968375;28;20242;-84
2021/04/28 10:06:12;;;;;;;17.05;13.48;;;19.70;32.90;;;;;;4963063;28;20289;-84
2021/04/28 10:08:38;;;;;;;14.90;13.32;;;20.00;31.30;;;;;;4970636;28;20673;-82
2021/04/28 10:11:03;;;;;;;15.23;13.73;;;20.20;30.00;;;;;;4962358;28;20278;-83
2021/04/28 10:13:29;;;;;;;15.10;13.43;;;20.30;30.20;;;;;;4963016;28;20841;-83
2021/04/28 10:15:55;;;;;;;14.82;13.27;;;20.30;30.00;;;;;;4965577;28;20668;-84
2021/04/28 10:18:22;;;;;;;16.02;13.88;;;20.70;30.70;;;;;;4966529;28;20195;-83
2021/04/28 10:20:49;;;;;;;14.15;12.80;;;20.40;31.60;;;;;;4966530;28;20717;-83
2021/04/28 10:23:17;;;;;;;17.73;13.93;;;20.70;31.40;;;;;;4976510;28;20290;-83
2021/04/28 10:25:47;;;;;;;14.85;13.23;;;21.20;30.70;;;;;;4965463;28;20241;-83
2021/04/28 10:28:13;;;;;;;18.20;14.20;;;21.30;29.80;;;;;;4968401;28;20553;-83
2021/04/28 10:30:44;;;;;;;18.40;13.68;;;21.30;29.90;;;;;;4970144;28;20258;-83
2021/04/28 10:33:17;;;;;;;15.32;13.23;;;21.20;30.60;;;;;;4969057;28;20598;-83
2021/04/28 10:35:43;;;;;;;15.32;12.82;;;21.30;30.70;;;;;;4967831;28;20214;-82
2021/04/28 10:38:09;;;;;;;14.18;12.73;;;21.60;28.50;;;;;;4963307;28;20225;-82
2021/04/28 10:40:36;;;;;;;12.68;11.43;;;21.70;27.10;;;;;;4971521;28;20634;-82
2021/04/28 10:43:09;;;;;;;14.88;13.38;;;21.50;27.10;;;;;;4967223;28;20313;-83
2021/04/28 10:45:38;;;;;;;15.18;13.25;;;21.60;27.50;;;;;;4967674;28;20235;-83
2021/04/28 10:48:11;;;;;;;15.70;12.98;;;22.00;27.80;;;;;;4968800;28;20252;-83
2021/04/28 10:50:46;;;;;;;13.57;12.18;;;22.50;27.50;;;;;;4965200;28;20193;-83
2021/04/28 10:53:28;;;;;;;15.15;12.02;;;22.40;27.50;;;;;;4970770;28;20276;-83
2021/04/28 10:55:58;;;;;;;13.85;12.50;;;22.60;27.30;;;;;;4976942;28;20209;-83
2021/04/28 10:58:31;;;;;;;13.57;12.43;;;22.80;27.10;;;;;;4970822;28;20191;-83
2021/04/28 11:01:00;;;;;;;13.32;11.95;;;23.10;26.40;;;;;;4971093;28;20331;-83
2021/04/28 11:03:49;;;;;;;14.80;12.50;;;23.30;27.20;;;;;;4970848;28;20218;-83
2021/04/28 11:08:46;;;;;;;13.77;10.50;;;23.50;27.00;;;;;;4972764;28;20183;-84
2021/04/28 11:11:30;;;;;;;14.50;11.07;;;23.80;25.60;;;;;;4971154;28;20176;-83
2021/04/28 11:14:08;;;;;;;11.98;10.68;;;24.20;25.20;;;;;;4979633;28;20317;-85
2021/04/28 11:16:50;;;;;;;10.70;8.70;;;24.20;24.90;;;;;;4983666;28;20221;-84
2021/04/28 11:19:20;;;;;;;10.65;9.55;;;24.40;25.20;;;;;;4986917;28;20187;-82
2021/04/28 11:22:06;;;;;;;9.85;8.95;;;24.20;23.70;;;;;;4984680;28;20205;-85
2021/04/28 11:24:54;;;;;;;10.45;9.45;;;24.40;23.60;;;;;;4973291;28;20183;-85
2021/04/28 11:27:40;;;;;;;11.57;10.07;;;24.40;23.20;;;;;;4979226;28;20183;-83
2021/04/28 11:30:19;;;;;;;10.25;8.70;;;24.40;23.70;;;;;;5001359;28;20243;-83
2021/04/28 11:33:06;;;;;;;10.05;9.05;;;24.90;23.00;;;;;;4975534;28;20737;-85
2021/04/28 11:35:33;;;;;;;11.10;9.98;;;24.20;23.40;;;;;;4966872;28;20215;-84
2021/04/28 11:38:16;;;;;;;10.52;8.68;;;24.40;23.70;;;;;;4970382;28;20188;-85
2021/04/28 11:41:00;;;;;;;14.25;9.90;;;25.10;23.50;;;;;;4977912;28;20194;-85
2021/04/28 11:43:28;;;;;;;10.05;9.05;;;25.50;22.70;;;;;;4964975;28;20554;-84
2021/04/28 11:46:00;;;;;;;9.65;8.55;;;25.90;23.00;;;;;;4969397;28;20290;-85
2021/04/28 11:48:27;;;;;;;10.43;9.35;;;26.10;22.80;;;;;;4962481;28;20192;-84
2021/04/28 11:50:56;;;;;;;12.57;9.45;;;25.90;22.90;;;;;;4973201;28;20195;-85
2021/04/28 11:53:22;;;;;;;10.02;9.13;;;25.70;22.40;;;;;;4974429;28;20186;-85
2021/04/28 11:55:49;;;;;;;11.30;8.20;;;25.70;22.70;;;;;;4966104;28;20348;-85
2021/04/28 11:58:29;;;;;;;11.52;9.07;;;25.90;22.60;;;;;;4968213;28;20268;-85
2021/04/28 12:01:02;;;;;;;10.25;8.05;;;26.30;22.70;;;;;;4969868;28;20183;-85
2021/04/28 12:03:28;;;;;;;8.65;7.90;;;26.30;22.40;;;;;;4983440;28;20192;-84
2021/04/28 12:05:54;;;;;;;7.95;7.18;;;26.10;22.80;;;;;;4977217;28;20211;-86
2021/04/28 12:08:19;;;;;;;10.77;7.53;;;26.40;22.30;;;;;;4964047;28;20231;-84
2021/04/28 12:10:55;;;;;;;9.80;6.78;;;26.30;23.50;;;;;;4983949;28;20202;-84
2021/04/28 12:13:22;;;;;;;7.18;5.95;;;25.90;22.80;;;;;;4968875;28;20187;-83
2021/04/28 12:15:54;;;;;;;7.65;6.70;;;26.00;22.50;;;;;;4986902;28;20328;-84
2021/04/28 12:18:47;;;;;;;8.30;6.90;;;26.50;21.80;;;;;;4963772;28;20191;-84
2021/04/28 12:21:12;;;;;;;7.28;6.60;;;26.80;21.50;;;;;;4962563;28;20223;-84
2021/04/28 12:23:39;;;;;;;7.18;6.55;;;26.70;21.80;;;;;;4978233;28;20195;-84
2021/04/28 12:26:08;;;;;;;7.80;6.15;;;26.80;20.80;;;;;;4967162;28;20293;-83
2021/04/28 12:28:50;;;;;;;8.73;6.40;;;27.10;21.50;;;;;;4968165;28;20210;-84
2021/04/28 12:31:16;;;;;;;9.35;8.40;;;27.30;21.10;;;;;;4986854;28;20261;-84
2021/04/28 12:33:42;;;;;;;6.68;6.05;;;27.60;20.70;;;;;;4968167;28;20214;-85
2021/04/28 12:36:08;;;;;;;8.13;7.43;;;27.60;20.60;;;;;;4970466;28;20210;-83
2021/04/28 12:38:40;;;;;;;7.85;7.15;;;27.50;20.70;;;;;;4971367;28;20187;-84
2021/04/28 12:41:07;;;;;;;10.27;7.07;;;27.30;21.20;;;;;;4968511;28;20187;-84
2021/04/28 12:43:36;;;;;;;7.47;6.75;;;27.80;21.40;;;;;;4964066;28;20187;-84
2021/04/28 12:46:09;;;;;;;8.05;7.20;;;28.40;20.70;;;;;;4970320;28;20222;-84
2021/04/28 12:48:54;;;;;;;6.85;6.25;;;28.10;20.70;;;;;;4978483;28;20191;-84